Time;durP1;ratioP1;P1;durP2;ratioP2;P2;SDS_P1;SDS_P2;PMS_P1;PMS_P2;Temp;Humidity;BMP_temperature;BMP_pressure;BME280_temperature;BME280_humidity;BME280_pressure;Samples;Min_cycle;Max_cycle;Signal;HPM_P1;HPM_P2
2023/02/01 00:02:04;;;;;;;0.00;0.00;;;;;;;6.74;60.41;99940.47;4370880;32;33497;-87
2023/02/01 00:04:33;;;;;;;0.00;0.00;;;;;;;6.87;60.16;99942.75;4374500;32;32930;-87
2023/02/01 00:07:01;;;;;;;0.22;0.22;;;;;;;6.74;60.40;99940.47;4370398;32;33327;-86
2023/02/01 00:09:29;;;;;;;0.00;0.00;;;;;;;6.87;60.18;99941.88;4372712;32;33834;-87
2023/02/01 00:11:59;;;;;;;0.00;0.00;;;;;;;6.95;59.81;99939.06;4375129;32;34514;-87
2023/02/01 00:14:27;;;;;;;0.10;0.10;;;;;;;6.85;60.09;99944.56;4378793;32;33580;-87
2023/02/01 00:18:16;;;;;;;0.13;0.08;;;;;;;7.49;58.35;99925.28;4506983;31;158236;-87
2023/02/01 00:20:47;;;;;;;0.52;0.52;;;;;;;7.49;58.35;99925.28;4487323;31;33767;-85
2023/02/01 00:23:15;;;;;;;0.00;0.00;;;;;;;6.97;59.38;99932.00;4488900;32;34719;-85
2023/02/01 00:25:43;;;;;;;2.95;1.77;;;;;;;6.69;60.29;99932.72;4482474;32;34713;-85
2023/02/01 00:28:12;;;;;;;0.00;0.00;;;;;;;6.64;60.21;99930.22;4482103;31;34588;-85
2023/02/01 00:30:43;;;;;;;0.32;0.32;;;;;;;6.49;60.42;99935.00;4482461;32;31935;-85
2023/02/01 00:33:15;;;;;;;0.37;0.37;;;;;;;6.62;60.20;99931.19;4495275;32;34260;-85
2023/02/01 00:35:46;;;;;;;1.02;0.70;;;;;;;6.80;59.78;99925.47;4481896;32;33725;-85
2023/02/01 00:38:14;;;;;;;0.30;0.30;;;;;;;6.88;59.49;99933.09;4469368;32;34847;-85
2023/02/01 00:40:42;;;;;;;0.17;0.17;;;;;;;6.53;59.78;99931.41;4482314;32;33448;-85
2023/02/01 00:43:10;;;;;;;0.32;0.32;;;;;;;6.46;60.21;99929.81;4482419;32;33652;-85
2023/02/01 00:45:38;;;;;;;0.43;0.43;;;;;;;6.14;60.99;99934.09;4482128;32;32081;-85
2023/02/01 00:48:06;;;;;;;0.60;0.60;;;;;;;6.16;60.91;99935.78;4495227;32;32529;-84
2023/02/01 00:50:33;;;;;;;0.50;0.50;;;;;;;6.23;60.81;99938.28;4469402;32;32183;-84
2023/02/01 00:53:01;;;;;;;0.08;0.08;;;;;;;6.54;59.81;99926.09;4469289;32;32594;-84
2023/02/01 00:55:29;;;;;;;1.48;1.20;;;;;;;6.67;59.46;99929.28;4481949;32;33368;-84
2023/02/01 00:58:00;;;;;;;0.30;0.30;;;;;;;6.57;59.43;99925.19;4491712;32;34450;-84
2023/02/01 01:00:29;;;;;;;0.17;0.17;;;;;;;6.47;59.71;99926.31;4495377;31;32479;-85
2023/02/01 01:02:56;;;;;;;0.55;0.25;;;;;;;6.66;58.85;99932.81;4482142;31;34487;-84
2023/02/01 01:05:24;;;;;;;0.00;0.00;;;;;;;6.44;58.70;99921.12;4481129;32;34146;-84
2023/02/01 01:07:53;;;;;;;0.00;0.00;;;;;;;6.59;58.01;99907.63;4482037;32;34854;-84
2023/02/01 01:10:22;;;;;;;0.40;0.40;;;;;;;6.65;57.22;99910.97;4482272;32;32693;-84
2023/02/01 01:12:50;;;;;;;0.00;0.00;;;;;;;6.30;57.96;99893.50;4469078;32;34158;-84
2023/02/01 01:15:18;;;;;;;0.37;0.37;;;;;;;6.86;56.08;99904.28;4475524;32;33426;-84
2023/02/01 01:17:46;;;;;;;0.00;0.00;;;;;;;6.79;56.38;99894.87;4481807;32;33369;-84
2023/02/01 01:20:14;;;;;;;0.10;0.10;;;;;;;6.62;56.53;99886.56;4480985;32;33047;-84
2023/02/01 01:22:43;;;;;;;0.00;0.00;;;;;;;6.52;56.68;99872.84;4480959;32;34265;-85
2023/02/01 01:25:12;;;;;;;0.00;0.00;;;;;;;6.38;57.04;99870.56;4481780;32;34192;-85
2023/02/01 01:27:40;;;;;;;0.00;0.00;;;;;;;6.39;56.93;99867.03;4478866;32;34365;-85
2023/02/01 01:30:09;;;;;;;0.10;0.10;;;;;;;6.56;56.40;99871.84;4471435;32;33113;-86
2023/02/01 01:32:37;;;;;;;0.08;0.08;;;;;;;6.16;56.94;99864.13;4470193;32;32819;-85
2023/02/01 01:35:05;;;;;;;0.43;0.43;;;;;;;6.26;56.97;99847.25;4458069;32;32996;-85
2023/02/01 01:37:35;;;;;;;0.50;0.50;;;;;;;5.97;57.47;99841.87;4471140;32;34077;-85
2023/02/01 01:40:04;;;;;;;0.00;0.00;;;;;;;6.05;57.02;99845.19;4470874;32;32299;-85
2023/02/01 01:42:40;;;;;;;0.00;0.00;;;;;;;5.92;57.61;99844.62;4457046;32;33363;-85
2023/02/01 01:45:27;;;;;;;0.00;0.00;;;;;;;6.10;57.47;99843.31;4471441;32;33233;-86
2023/02/01 01:47:59;;;;;;;0.00;0.00;;;;;;;5.85;57.82;99833.41;4484171;32;33982;-85
2023/02/01 01:50:34;;;;;;;0.00;0.00;;;;;;;6.05;57.52;99837.31;4467690;32;33331;-85
2023/02/01 01:53:04;;;;;;;0.10;0.10;;;;;;;6.17;57.35;99844.88;4471044;32;35906;-85
2023/02/01 01:55:36;;;;;;;0.00;0.00;;;;;;;6.06;57.59;99852.16;4467475;32;33254;-85
2023/02/01 01:58:13;;;;;;;0.00;0.00;;;;;;;5.98;57.79;99856.72;4468134;32;34400;-86
2023/02/01 02:00:42;;;;;;;0.15;0.15;;;;;;;6.31;57.09;99858.50;4484206;32;33979;-85
2023/02/01 02:03:35;;;;;;;0.00;0.00;;;;;;;6.15;57.61;99851.91;4471070;32;31881;-85
2023/02/01 02:06:07;;;;;;;0.00;0.00;;;;;;;6.37;56.47;99857.50;4470250;32;33753;-84
2023/02/01 02:08:37;;;;;;;0.17;0.17;;;;;;;6.05;57.70;99850.44;4471109;32;33647;-84
2023/02/01 02:11:10;;;;;;;0.00;0.00;;;;;;;6.09;57.25;99852.09;4471753;32;32757;-84
2023/02/01 02:13:47;;;;;;;0.00;0.00;;;;;;;6.36;56.41;99851.41;4471156;32;33887;-84
2023/02/01 02:16:16;;;;;;;0.00;0.00;;;;;;;6.33;56.54;99851.47;4481591;32;33996;-84
2023/02/01 02:18:47;;;;;;;0.00;0.00;;;;;;;6.26;56.69;99849.88;4483998;32;33090;-84
2023/02/01 02:21:37;;;;;;;0.17;0.17;;;;;;;6.62;55.58;99849.84;4483692;32;33945;-85
2023/02/01 02:24:11;;;;;;;0.00;0.00;;;;;;;6.26;56.63;99844.62;4485167;32;33611;-85
2023/02/01 02:26:53;;;;;;;0.10;0.10;;;;;;;6.32;56.18;99839.25;4470413;32;33895;-85
2023/02/01 02:29:49;;;;;;;0.00;0.00;;;;;;;6.41;56.11;99849.50;4484324;32;33827;-84
2023/02/01 02:32:35;;;;;;;0.00;0.00;;;;;;;6.28;56.32;99836.75;4471276;32;33717;-85
2023/02/01 02:35:14;;;;;;;0.00;0.00;;;;;;;6.41;56.12;99836.41;4457034;32;32748;-85
2023/02/01 02:37:58;;;;;;;0.20;0.20;;;;;;;6.41;56.20;99832.91;4470852;32;33285;-85
2023/02/01 02:40:30;;;;;;;0.00;0.00;;;;;;;6.32;56.38;99815.66;4469347;32;34458;-86
2023/02/01 02:48:46;;;;;;;0.47;0.47;;;;;;;6.12;57.43;99831.00;4482284;32;33845;-84
2023/02/01 03:05:50;;;;;;;1.87;0.70;;;;;;;5.95;58.83;99830.59;4472563;32;32198;-85
2023/02/01 03:08:20;;;;;;;0.43;0.43;;;;;;;5.82;58.97;99828.22;4471019;32;32530;-84
2023/02/01 03:10:54;;;;;;;0.10;0.10;;;;;;;6.19;58.04;99823.88;4470746;32;34807;-85
2023/02/01 03:13:44;;;;;;;0.00;0.00;;;;;;;5.80;58.97;99830.03;4470980;32;35533;-84
2023/02/01 03:16:26;;;;;;;0.00;0.00;;;;;;;5.86;59.43;99829.88;4484489;32;33369;-84
2023/02/01 03:18:59;;;;;;;;;;;;;;;6.28;58.05;99826.25;4483434;32;34464;-84
2023/02/01 03:21:35;;;;;;;;;;;;;;;6.07;58.77;99817.16;4474914;32;34038;-85
2023/02/01 03:24:07;;;;;;;0.10;0.10;;;;;;;6.30;57.56;99820.06;4470913;32;33656;-84
2023/02/01 03:26:39;;;;;;;0.52;0.52;;;;;;;6.20;58.18;99823.81;4457878;32;33213;-85
2023/02/01 03:29:27;;;;;;;0.40;0.40;;;;;;;6.05;58.48;99821.59;4467758;32;32986;-84
2023/02/01 03:31:55;;;;;;;0.55;0.55;;;;;;;5.88;59.25;99833.31;4470548;32;33174;-84
2023/02/01 03:34:23;;;;;;;0.13;0.13;;;;;;;5.90;58.97;99835.91;4455193;32;32742;-85
2023/02/01 03:36:58;;;;;;;0.00;0.00;;;;;;;6.01;58.89;99838.28;4469797;32;32479;-84
2023/02/01 03:39:34;;;;;;;0.00;0.00;;;;;;;6.04;59.03;99825.13;4456087;32;33123;-86
2023/02/01 03:42:05;;;;;;;0.00;0.00;;;;;;;6.13;58.63;99830.12;4483822;32;33114;-85
2023/02/01 03:44:59;;;;;;;0.00;0.00;;;;;;;6.25;58.26;99829.81;4458174;32;32883;-86
2023/02/01 03:47:32;;;;;;;0.00;0.00;;;;;;;6.20;58.47;99823.81;4465153;32;32290;-85
2023/02/01 03:50:08;;;;;;;0.10;0.10;;;;;;;6.57;57.27;99817.63;4470364;32;33557;-85
2023/02/01 03:52:42;;;;;;;0.00;0.00;;;;;;;6.52;57.23;99819.50;4461839;32;33894;-85
2023/02/01 03:55:15;;;;;;;0.10;0.10;;;;;;;6.66;56.85;99818.22;4471257;32;34131;-86
2023/02/01 03:57:54;;;;;;;0.00;0.00;;;;;;;6.52;56.87;99824.75;4457805;32;32291;-86
2023/02/01 04:00:26;;;;;;;1.35;0.65;;;;;;;6.78;56.53;99831.91;4483504;32;31873;-86
2023/02/01 04:02:54;;;;;;;0.00;0.00;;;;;;;6.53;57.46;99834.34;4457778;32;33554;-87
2023/02/01 04:05:22;;;;;;;1.20;0.55;;;;;;;6.49;57.35;99836.19;4470602;32;33720;-86
2023/02/01 04:07:50;;;;;;;0.00;0.00;;;;;;;6.52;57.18;99825.63;4483671;32;33122;-86
2023/02/01 04:10:18;;;;;;;0.10;0.10;;;;;;;6.21;58.12;99829.94;4457300;32;32507;-87
2023/02/01 04:12:46;;;;;;;0.00;0.00;;;;;;;6.10;58.92;99827.59;4470538;32;33539;-86
2023/02/01 04:15:14;;;;;;;0.00;0.00;;;;;;;6.30;57.91;99835.78;4470214;32;32160;-86
2023/02/01 04:17:45;;;;;;;0.00;0.00;;;;;;;6.44;57.52;99832.81;4470422;32;34095;-87
2023/02/01 04:20:14;;;;;;;0.00;0.00;;;;;;;6.46;57.61;99822.28;4470066;32;33257;-87
2023/02/01 04:22:44;;;;;;;0.00;0.00;;;;;;;6.64;56.95;99829.66;4470495;32;33831;-86
2023/02/01 04:25:12;;;;;;;0.00;0.00;;;;;;;6.55;57.34;99825.53;4456132;32;33286;-85
2023/02/01 04:27:40;;;;;;;0.00;0.00;;;;;;;6.61;56.79;99829.75;4470033;32;34111;-87
2023/02/01 04:30:12;;;;;;;0.00;0.00;;;;;;;6.45;57.23;99826.66;4470435;32;33130;-88
2023/02/01 04:32:40;;;;;;;0.00;0.00;;;;;;;6.60;56.91;99828.03;4470008;32;33521;-87
2023/02/01 04:35:09;;;;;;;0.00;0.00;;;;;;;6.43;57.55;99840.75;4468378;32;32869;-86
2023/02/01 04:37:38;;;;;;;0.00;0.00;;;;;;;6.22;57.94;99834.25;4482803;32;31338;-85
2023/02/01 04:40:06;;;;;;;0.00;0.00;;;;;;;6.12;58.14;99839.78;4470039;32;32437;-85
2023/02/01 04:42:35;;;;;;;0.00;0.00;;;;;;;6.62;56.62;99836.72;4482721;32;34731;-85
2023/02/01 04:45:05;;;;;;;0.00;0.00;;;;;;;6.28;57.55;99832.38;4482771;32;33458;-85
2023/02/01 04:47:34;;;;;;;0.00;0.00;;;;;;;6.28;57.77;99845.47;4482379;32;32943;-84
2023/02/01 04:50:03;;;;;;;0.00;0.00;;;;;;;6.44;57.64;99842.44;4455914;32;32653;-84
2023/02/01 04:52:32;;;;;;;0.00;0.00;;;;;;;6.33;57.49;99840.97;4457314;32;34047;-85
2023/02/01 04:55:02;;;;;;;0.10;0.10;;;;;;;6.60;56.84;99849.03;4469885;32;32793;-85
2023/02/01 04:57:32;;;;;;;0.00;0.00;;;;;;;6.01;58.69;99843.53;4444337;32;31967;-86
2023/02/01 05:00:00;;;;;;;0.00;0.00;;;;;;;6.00;58.56;99857.53;4482332;32;33980;-86
2023/02/01 05:02:29;;;;;;;0.00;0.00;;;;;;;6.23;57.99;99849.97;4469856;32;32958;-86
2023/02/01 05:04:57;;;;;;;0.00;0.00;;;;;;;5.90;58.85;99846.41;4471666;32;33727;-86
2023/02/01 05:07:26;;;;;;;0.00;0.00;;;;;;;6.24;58.16;99845.59;4471942;32;32376;-86
2023/02/01 05:09:58;;;;;;;0.00;0.00;;;;;;;6.02;58.74;99842.63;4459654;32;33167;-86
2023/02/01 05:15:23;;;;;;;0.00;0.00;;;;;;;6.01;58.63;99846.16;4481907;32;34599;-85
2023/02/01 05:17:58;;;;;;;0.00;0.00;;;;;;;6.34;57.69;99836.59;4483656;32;32984;-85
2023/02/01 05:20:32;;;;;;;0.00;0.00;;;;;;;6.19;58.32;99845.72;4459747;32;32938;-84
2023/02/01 05:23:03;;;;;;;0.00;0.00;;;;;;;6.47;57.37;99845.88;4484308;32;33543;-84
2023/02/01 05:25:34;;;;;;;0.00;0.00;;;;;;;6.38;57.67;99844.34;4471604;32;32356;-86
2023/02/01 05:28:03;;;;;;;0.00;0.00;;;;;;;6.06;58.70;99828.56;4458465;32;33512;-86
2023/02/01 05:30:37;;;;;;;0.00;0.00;;;;;;;6.29;58.26;99828.84;4472479;32;34097;-86
2023/02/01 05:33:10;;;;;;;0.00;0.00;;;;;;;6.39;57.70;99825.06;4459686;32;32358;-86
2023/02/01 05:35:39;;;;;;;0.00;0.00;;;;;;;5.92;59.24;99823.66;4459091;32;32682;-86
2023/02/01 05:38:12;;;;;;;0.10;0.10;;;;;;;5.94;59.10;99821.00;4470529;32;32234;-86
2023/02/01 05:40:49;;;;;;;0.00;0.00;;;;;;;5.96;59.21;99819.19;4484846;32;33845;-84
2023/02/01 05:43:21;;;;;;;0.00;0.00;;;;;;;6.34;57.72;99826.94;4459136;32;32899;-85
2023/02/01 05:45:56;;;;;;;0.00;0.00;;;;;;;6.35;57.64;99828.66;4472630;32;33190;-84
2023/02/01 05:48:26;;;;;;;0.00;0.00;;;;;;;6.03;58.43;99832.13;4461304;32;33575;-83
2023/02/01 05:50:55;;;;;;;0.00;0.00;;;;;;;6.21;57.83;99836.03;4459243;32;33236;-85
2023/02/01 05:53:23;;;;;;;1.75;1.15;;;;;;;6.45;57.37;99836.28;4457448;32;32423;-84
2023/02/01 05:55:56;;;;;;;0.00;0.00;;;;;;;6.21;58.00;99840.41;4477031;32;33524;-84
2023/02/01 05:58:29;;;;;;;0.30;0.30;;;;;;;6.28;57.57;99848.09;4456897;32;32625;-85
2023/02/01 06:01:08;;;;;;;;;;;;;;;6.58;56.75;99846.44;4465314;32;33144;-85
2023/02/01 06:03:40;;;;;;;0.05;0.05;;;;;;;6.39;57.59;99853.06;4465445;32;32846;-87
2023/02/01 06:06:15;;;;;;;0.00;0.00;;;;;;;6.46;57.10;99856.37;4450866;32;32792;-87
2023/02/01 06:08:48;;;;;;;0.15;0.15;;;;;;;6.37;57.26;99847.87;4477630;32;33028;-88
2023/02/01 06:11:18;;;;;;;0.10;0.10;;;;;;;6.17;58.26;99847.50;4467432;32;33550;-88
2023/02/01 06:14:02;;;;;;;0.00;0.00;;;;;;;5.94;58.67;99847.22;4468380;32;34502;-88
2023/02/01 06:16:31;;;;;;;0.00;0.00;;;;;;;5.97;58.53;99873.34;4467637;32;33420;-89
2023/02/01 06:19:09;;;;;;;0.25;0.25;;;;;;;5.87;58.79;99854.31;4467555;32;34088;-90
2023/02/01 06:21:38;;;;;;;0.00;0.00;;;;;;;6.01;58.23;99872.37;4464104;32;33451;-89
2023/02/01 06:24:08;;;;;;;0.00;0.00;;;;;;;5.99;58.48;99872.41;4453054;32;34332;-86
2023/02/01 06:26:49;;;;;;;0.00;0.00;;;;;;;6.21;58.19;99871.87;4480432;32;33379;-85
2023/02/01 06:29:23;;;;;;;0.00;0.00;;;;;;;6.50;57.18;99881.63;4454799;32;34162;-85
2023/02/01 06:31:56;;;;;;;0.00;0.00;;;;;;;6.20;58.04;99871.03;4478333;32;33243;-85
2023/02/01 06:34:26;;;;;;;0.00;0.00;;;;;;;6.18;58.19;99882.47;4451623;32;31778;-86
2023/02/01 06:36:56;;;;;;;0.00;0.00;;;;;;;6.32;57.64;99885.59;4463919;32;32569;-84
2023/02/01 06:39:36;;;;;;;0.17;0.17;;;;;;;6.13;58.24;99877.34;4467917;32;31958;-89
2023/02/01 06:42:20;;;;;;;0.00;0.00;;;;;;;6.27;57.88;99888.34;4469974;32;32937;-90
2023/02/01 06:44:51;;;;;;;0.00;0.00;;;;;;;6.58;57.13;99887.53;4458053;32;33200;-91
2023/02/01 06:47:27;;;;;;;0.35;0.35;;;;;;;6.65;56.78;99883.88;4456551;32;32768;-90
2023/02/01 06:49:57;;;;;;;0.00;0.00;;;;;;;6.56;57.13;99889.38;4455138;32;33036;-90
2023/02/01 06:52:33;;;;;;;0.43;0.43;;;;;;;6.47;57.24;99890.47;4468159;32;33957;-90
2023/02/01 06:55:08;;;;;;;0.00;0.00;;;;;;;6.43;57.50;99895.81;4453867;32;34124;-90
2023/02/01 06:57:44;;;;;;;0.00;0.00;;;;;;;6.73;56.79;99895.00;4468564;32;33567;-90
2023/02/01 07:00:28;;;;;;;0.47;0.35;;;;;;;6.60;57.24;99898.88;4455874;32;34391;-92
2023/02/01 07:02:58;;;;;;;0.50;0.50;;;;;;;6.71;56.97;99898.59;4460057;32;33103;-90
2023/02/01 07:05:27;;;;;;;0.00;0.00;;;;;;;6.47;57.97;99897.47;4468666;32;33256;-89
2023/02/01 07:07:57;;;;;;;0.00;0.00;;;;;;;6.48;57.52;99902.66;4460260;32;33045;-90
2023/02/01 07:10:26;;;;;;;0.00;0.00;;;;;;;6.63;57.13;99901.41;4454383;32;32135;-89
2023/02/01 07:12:59;;;;;;;0.00;0.00;;;;;;;7.07;55.93;99901.97;4456799;32;32742;-88
2023/02/01 07:15:34;;;;;;;0.00;0.00;;;;;;;6.82;56.10;99901.78;4466586;32;34721;-87
2023/02/01 07:18:06;;;;;;;;;;;;;;;6.89;56.17;99912.09;4466149;32;33082;-87
2023/02/01 07:20:36;;;;;;;0.00;0.00;;;;;;;6.67;56.86;99914.41;4464245;32;35584;-87
2023/02/01 07:23:09;;;;;;;0.00;0.00;;;;;;;6.96;56.04;99917.16;4479587;32;33637;-86
2023/02/01 07:25:55;;;;;;;1.65;1.10;;;;;;;6.89;56.42;99930.47;4471904;32;34890;-87
2023/02/01 07:28:26;;;;;;;0.00;0.00;;;;;;;6.82;56.31;99923.63;4458375;32;35720;-87
2023/02/01 07:30:54;;;;;;;0.00;0.00;;;;;;;6.74;56.16;99924.72;4458818;32;32458;-87
2023/02/01 07:33:27;;;;;;;0.17;0.15;;;;;;;6.86;56.19;99922.66;4457775;32;32881;-87
2023/02/01 07:35:56;;;;;;;0.20;0.20;;;;;;;7.13;55.03;99930.72;4470239;32;33859;-87
2023/02/01 07:38:28;;;;;;;0.00;0.00;;;;;;;7.29;54.40;99939.00;4470849;32;32895;-88
2023/02/01 07:41:01;;;;;;;0.00;0.00;;;;;;;7.28;54.12;99938.16;4456811;32;32174;-87
2023/02/01 07:43:43;;;;;;;0.30;0.30;;;;;;;7.14;55.07;99935.03;4483496;32;33171;-87
2023/02/01 07:46:12;;;;;;;0.15;0.15;;;;;;;7.49;53.45;99941.06;4470057;32;34378;-87
2023/02/01 07:48:42;;;;;;;0.00;0.00;;;;;;;7.96;52.78;99937.88;4483094;32;33823;-87
2023/02/01 07:51:15;;;;;;;1.25;0.37;;;;;;;7.81;52.86;99940.97;4458405;32;32931;-87
2023/02/01 07:53:44;;;;;;;0.08;0.08;;;;;;;7.84;52.97;99930.38;4456163;32;32673;-87
2023/02/01 07:59:04;;;;;;;0.00;0.00;;;;;;;7.61;53.68;99935.47;4472037;32;33133;-87
2023/02/01 08:01:35;;;;;;;0.22;0.22;;;;;;;7.62;53.75;99927.53;4470362;32;33277;-87
2023/02/01 08:04:08;;;;;;;0.00;0.00;;;;;;;7.95;53.07;99933.53;4470277;32;33700;-87
2023/02/01 08:06:38;;;;;;;0.15;0.15;;;;;;;7.50;54.08;99933.16;4470376;32;35012;-87
2023/02/01 08:11:43;;;;;;;0.13;0.13;;;;;;;7.61;53.37;99927.59;4482836;32;33557;-87
2023/02/01 08:14:16;;;;;;;0.00;0.00;;;;;;;7.68;53.22;99926.47;4470816;32;32769;-87
2023/02/01 08:16:45;;;;;;;0.10;0.10;;;;;;;7.80;53.07;99943.66;4469547;32;33619;-87
2023/02/01 08:19:16;;;;;;;0.00;0.00;;;;;;;8.02;52.57;99931.56;4469778;32;34451;-88
2023/02/01 08:24:34;;;;;;;1.17;1.08;;;;;;;7.80;53.93;99948.91;4470230;32;33022;-90
2023/02/01 08:27:05;;;;;;;0.00;0.00;;;;;;;7.95;53.42;99959.81;4467933;32;33794;-88
2023/02/01 08:29:37;;;;;;;0.25;0.25;;;;;;;8.30;52.88;99960.50;4472150;31;33128;-89
2023/02/01 08:32:18;;;;;;;0.20;0.20;;;;;;;8.15;52.64;99964.47;4464590;32;35046;-90
2023/02/01 08:34:47;;;;;;;36.15;1.75;;;;;;;8.59;51.66;99958.72;4474921;32;33600;-87
2023/02/01 08:37:19;;;;;;;0.22;0.20;;;;;;;8.53;51.74;99966.81;4449621;32;32227;-87
2023/02/01 08:39:50;;;;;;;0.65;0.65;;;;;;;8.59;51.84;99970.13;4467663;32;34067;-88
2023/02/01 08:45:10;;;;;;;0.00;0.00;;;;;;;8.34;51.38;99959.50;4480000;32;34173;-87
2023/02/01 08:47:40;;;;;;;0.00;0.00;;;;;;;8.52;51.28;99968.59;4467409;32;35246;-87
2023/02/01 08:50:13;;;;;;;0.20;0.20;;;;;;;8.93;50.22;99955.84;4477438;32;33818;-89
2023/02/01 08:52:45;;;;;;;0.00;0.00;;;;;;;8.63;50.54;99961.19;4456018;32;32760;-87
2023/02/01 08:57:58;;;;;;;0.00;0.00;;;;;;;8.69;50.24;99954.91;4480756;32;34227;-87
2023/02/01 09:00:26;;;;;;;0.10;0.10;;;;;;;8.83;50.30;99955.28;4464789;32;32983;-87
2023/02/01 09:02:55;;;;;;;0.00;0.00;;;;;;;8.76;50.59;99945.88;4456982;32;32347;-87
2023/02/01 09:05:26;;;;;;;0.00;0.00;;;;;;;8.36;51.15;99952.47;4481001;31;31101;-86
2023/02/01 09:08:08;;;;;;;0.00;0.00;;;;;;;8.30;51.31;99957.84;4460699;32;33418;-86
2023/02/01 09:10:38;;;;;;;0.85;0.68;;;;;;;8.40;51.67;99951.44;4457325;32;32577;-88
2023/02/01 09:13:09;;;;;;;0.25;0.25;;;;;;;8.57;50.92;99945.63;4459134;32;31883;-88
2023/02/01 09:15:40;;;;;;;0.00;0.00;;;;;;;8.63;50.77;99948.03;4471207;32;33597;-86
2023/02/01 09:18:10;;;;;;;0.30;0.30;;;;;;;8.72;50.69;99947.72;4482830;32;35192;-87
2023/02/01 09:20:41;;;;;;;0.00;0.00;;;;;;;9.01;50.61;99942.38;4484228;32;33605;-87
2023/02/01 09:23:10;;;;;;;0.00;0.00;;;;;;;9.08;50.10;99954.44;4471314;32;31786;-88
2023/02/01 09:25:38;;;;;;;0.70;0.15;;;;;;;9.28;49.59;99938.78;4471225;32;33320;-87
2023/02/01 09:28:10;;;;;;;0.00;0.00;;;;;;;9.21;49.40;99939.91;4483074;32;35198;-86
2023/02/01 09:30:40;;;;;;;0.20;0.20;;;;;;;9.65;48.39;99945.34;4482929;32;34421;-86
2023/02/01 09:33:08;;;;;;;0.32;0.25;;;;;;;9.32;49.27;99961.47;4471276;32;33271;-86
2023/02/01 09:35:38;;;;;;;0.00;0.00;;;;;;;9.58;49.01;99952.59;4458495;32;31712;-87
2023/02/01 09:38:11;;;;;;;1.10;0.62;;;;;;;9.18;49.54;99977.75;4471314;32;34267;-86
2023/02/01 09:40:44;;;;;;;0.05;0.05;;;;;;;9.02;50.42;99975.69;4469730;32;32631;-90
2023/02/01 09:43:39;;;;;;;0.17;0.17;;;;;;;9.01;50.24;99972.22;4455967;32;31975;-88
2023/02/01 09:46:23;;;;;;;0.08;0.08;;;;;;;9.02;51.37;99987.13;4470640;32;34439;-88
2023/02/01 09:49:01;;;;;;;0.00;0.00;;;;;;;9.19;51.20;99986.53;4471328;32;36237;-91
2023/02/01 09:51:38;;;;;;;0.00;0.00;;;;;;;8.80;51.82;99984.34;4456527;32;33388;-88
2023/02/01 09:54:22;;;;;;;0.20;0.20;;;;;;;9.21;51.94;99974.16;4471076;32;33066;-88
2023/02/01 09:57:19;;;;;;;1.85;1.02;;;;;;;9.23;52.29;99977.59;4458138;32;33468;-89
2023/02/01 09:59:58;;;;;;;0.32;0.32;;;;;;;9.16;52.76;99978.72;4458723;32;32989;-88
2023/02/01 10:02:30;;;;;;;0.47;0.47;;;;;;;8.55;53.92;99979.03;4470258;32;33038;-90
2023/02/01 10:05:05;;;;;;;0.05;0.05;;;;;;;8.84;53.12;99970.16;4471851;32;33278;-88
2023/02/01 10:07:56;;;;;;;0.20;0.20;;;;;;;9.23;52.65;99961.78;4471005;32;33508;-88
2023/02/01 10:10:32;;;;;;;0.10;0.10;;;;;;;9.06;52.31;99953.63;4470608;32;32935;-88
2023/02/01 10:13:17;;;;;;;0.08;0.08;;;;;;;9.23;52.16;99951.25;4452990;32;33804;-88
2023/02/01 10:19:07;;;;;;;0.00;0.00;;;;;;;9.42;51.75;99923.31;4468673;32;33774;-89
2023/02/01 10:21:52;;;;;;;0.37;0.37;;;;;;;9.39;51.61;99909.37;4480814;32;33539;-89
2023/02/01 10:24:37;;;;;;;0.17;0.17;;;;;;;9.20;52.18;99914.47;4466607;32;33377;-88
2023/02/01 10:27:18;;;;;;;0.00;0.00;;;;;;;9.09;52.18;99916.63;4480217;32;33441;-88
2023/02/01 10:30:00;;;;;;;0.57;0.57;;;;;;;9.29;51.79;99914.12;4455530;32;31971;-87
2023/02/01 10:35:17;;;;;;;0.32;0.32;;;;;;;9.32;52.64;99911.41;4468527;32;32977;-88
2023/02/01 10:37:48;;;;;;;0.50;0.50;;;;;;;9.62;51.42;99900.63;4478496;32;31152;-88
2023/02/01 10:40:24;;;;;;;0.13;0.13;;;;;;;9.74;50.68;99892.25;4466137;32;33847;-88
2023/02/01 10:43:01;;;;;;;0.55;0.55;;;;;;;10.09;49.94;99884.72;4464432;32;34533;-88
2023/02/01 10:45:34;;;;;;;0.00;0.00;;;;;;;9.68;50.69;99880.13;4453933;32;33175;-88
2023/02/01 10:48:09;;;;;;;0.30;0.30;;;;;;;9.28;51.96;99901.03;4465247;32;33034;-89
2023/02/01 10:50:49;;;;;;;1.40;0.93;;;;;;;9.25;51.92;99904.63;4453122;32;34208;-89
2023/02/01 10:53:33;;;;;;;1.75;1.27;;;;;;;9.09;52.35;99904.31;4477186;31;34503;-88
2023/02/01 10:56:11;;;;;;;0.75;0.55;;;;;;;9.14;52.54;99901.53;4455039;32;33244;-87
2023/02/01 11:01:42;;;;;;;0.00;0.00;;;;;;;9.41;53.20;99889.13;4476477;32;34363;-87
2023/02/01 11:04:14;;;;;;;1.48;1.10;;;;;;;9.61;52.54;99885.72;4477379;32;33748;-88
2023/02/01 11:06:55;;;;;;;0.28;0.28;;;;;;;9.48;52.72;99880.91;4455909;32;32198;-88
2023/02/01 11:09:39;;;;;;;0.80;0.45;;;;;;;9.84;52.37;99869.00;4471350;32;33142;-87
2023/02/01 11:12:34;;;;;;;2.35;0.73;;;;;;;9.96;52.17;99869.34;4469155;32;34051;-88
2023/02/01 11:18:15;;;;;;;1.17;0.65;;;;;;;9.90;51.61;99856.44;4486358;31;33772;-87
2023/02/01 11:20:45;;;;;;;0.00;0.00;;;;;;;9.93;52.70;99852.81;4469996;31;32039;-87
2023/02/01 11:23:19;;;;;;;0.50;0.50;;;;;;;10.10;52.93;99847.69;4458051;31;33797;-87
2023/02/01 11:28:42;;;;;;;1.67;0.85;;;;;;;9.98;53.63;99835.03;4484000;31;35269;-87
2023/02/01 11:31:14;;;;;;;0.65;0.65;;;;;;;9.84;54.55;99838.22;4468218;31;32037;-88
2023/02/01 11:33:58;;;;;;;0.10;0.10;;;;;;;10.22;53.47;99822.59;4452806;31;33088;-87
2023/02/01 11:36:31;;;;;;;0.45;0.35;;;;;;;9.99;53.99;99829.69;4453590;31;33052;-88
2023/02/01 11:39:17;;;;;;;0.00;0.00;;;;;;;9.81;54.91;99821.66;4455751;31;32660;-87
2023/02/01 11:42:05;;;;;;;0.10;0.10;;;;;;;10.13;54.86;99820.34;4477783;31;33297;-87
2023/02/01 11:44:38;;;;;;;0.13;0.13;;;;;;;10.32;53.62;99816.03;4453856;31;33557;-88
2023/02/01 11:47:23;;;;;;;0.00;0.00;;;;;;;9.78;55.78;99813.84;4466311;31;34482;-88
2023/02/01 11:50:16;;;;;;;0.10;0.10;;;;;;;9.12;56.27;99808.53;4478850;31;33501;-87
2023/02/01 11:53:50;;;;;;;0.00;0.00;;;;;;;9.28;57.35;99807.03;4468259;31;33009;-87
2023/02/01 11:59:21;;;;;;;0.08;0.08;;;;;;;9.39;56.59;99809.25;4434185;32;32676;-87
2023/02/01 12:01:57;;;;;;;0.10;0.10;;;;;;;9.51;56.88;99805.28;4452552;31;33674;-88
2023/02/01 12:04:57;;;;;;;0.10;0.10;;;;;;;9.65;57.69;99795.06;4477768;31;34054;-87
2023/02/01 12:08:17;;;;;;;0.00;0.00;;;;;;;9.25;59.18;99801.88;4468546;31;33554;-87
2023/02/01 12:10:52;;;;;;;2.35;0.80;;;;;;;9.24;58.99;99801.00;4403060;31;33330;-87
2023/02/01 12:13:36;;;;;;;0.00;0.00;;;;;;;8.85;59.55;99806.00;4479001;31;33260;-87
2023/02/01 12:16:17;;;;;;;1.08;1.00;;;;;;;9.01;59.79;99814.19;4466493;31;31875;-87
2023/02/01 12:18:56;;;;;;;0.00;0.00;;;;;;;9.11;60.40;99819.97;4479549;31;34144;-87
2023/02/01 12:21:47;;;;;;;0.30;0.30;;;;;;;8.79;60.78;99824.66;4468893;31;33177;-88
2023/02/01 12:24:52;;;;;;;0.00;0.00;;;;;;;8.70;61.94;99819.72;4466904;31;33788;-88
2023/02/01 12:27:41;;;;;;;0.00;0.00;;;;;;;8.14;63.15;99835.66;4464983;31;33411;-87
2023/02/01 12:33:53;;;;;;;0.00;0.00;;;;;;;7.64;64.39;99838.12;4484953;31;34030;-88
2023/02/01 12:36:31;;;;;;;0.00;0.00;;;;;;;7.74;64.12;99831.69;4440903;31;30808;-87
2023/02/01 12:42:12;;;;;;;0.05;0.05;;;;;;;7.00;67.19;99837.44;4466055;31;33670;-87
2023/02/01 12:44:54;;;;;;;;;;;;;;;7.25;66.59;99833.16;4479524;31;34811;-87
2023/02/01 12:47:50;;;;;;;0.70;0.62;;;;;;;7.29;66.59;99828.69;4456760;31;32985;-87
2023/02/01 12:50:49;;;;;;;0.17;0.17;;;;;;;7.55;65.81;99809.50;4478676;31;34053;-86
2023/02/01 12:53:45;;;;;;;0.00;0.00;;;;;;;7.82;65.41;99803.37;4465416;31;33495;-86
2023/02/01 12:56:44;;;;;;;0.47;0.13;;;;;;;7.60;66.39;99807.62;4480462;31;33474;-86
2023/02/01 12:59:36;;;;;;;0.00;0.00;;;;;;;7.83;65.47;99794.59;4465909;31;32609;-87
2023/02/01 13:02:22;;;;;;;;;;;;;;;7.54;66.25;99789.38;4456644;32;33177;-87
2023/02/01 13:04:55;;;;;;;0.25;0.25;;;;;;;7.53;66.67;99790.31;4466040;31;33531;-87
2023/02/01 13:07:49;;;;;;;6.35;0.90;;;;;;;7.89;66.09;99772.50;4479356;31;32706;-86
2023/02/01 13:10:38;;;;;;;3.90;0.70;;;;;;;8.01;65.83;99771.22;4477360;31;34554;-87
2023/02/01 13:13:24;;;;;;;0.32;0.32;;;;;;;8.11;65.53;99773.47;4464937;31;32765;-86
2023/02/01 13:16:42;;;;;;;0.40;0.40;;;;;;;7.74;66.16;99765.97;4452083;32;33124;-87
2023/02/01 13:19:28;;;;;;;0.05;0.05;;;;;;;7.30;67.44;99762.97;4417034;32;34703;-87
2023/02/01 13:27:41;;;;;;;0.22;0.22;;;;;;;7.30;67.63;99755.09;4460176;31;35082;-87
2023/02/01 13:30:26;;;;;;;1.98;0.80;;;;;;;7.08;68.25;99752.28;4459599;31;34504;-87